createdAt,value
2022-09-20T00:02:27.952Z,88.85
2022-09-20T00:04:59.240Z,89.03
2022-09-20T00:07:31.107Z,88.84
2022-09-20T00:10:02.399Z,88.86
2022-09-20T00:12:33.682Z,88.84
2022-09-20T00:15:05.833Z,88.87
2022-09-20T00:17:37.125Z,89.16
2022-09-20T00:20:08.597Z,89.19
2022-09-20T00:22:39.950Z,88.66
2022-09-20T00:25:11.206Z,88.84
2022-09-20T00:27:42.697Z,88.94
2022-09-20T00:30:14.170Z,88.41
2022-09-20T00:32:45.453Z,88.67
2022-09-20T00:35:16.778Z,88.82
2022-09-20T00:37:48.040Z,88.56
2022-09-20T00:40:22.221Z,88.39
2022-09-20T00:42:53.843Z,88.42
2022-09-20T00:45:30.124Z,88.48
2022-09-20T00:48:13.237Z,88.55
2022-09-20T00:50:49.469Z,88.43
2022-09-20T00:53:27.230Z,88.55
2022-09-20T00:56:03.695Z,88.60
2022-09-20T00:58:40.062Z,88.91
2022-09-20T01:01:11.741Z,88.94
2022-09-20T01:03:43.737Z,88.77
2022-09-20T01:06:16.823Z,88.85
2022-09-20T01:08:51.918Z,89.08
2022-09-20T01:11:23.424Z,88.94
2022-09-20T01:13:54.752Z,89.08
2022-09-20T01:16:30.153Z,89.00
2022-09-20T01:19:09.681Z,89.35
2022-09-20T01:21:41.191Z,89.25
2022-09-20T01:24:28.040Z,89.25
2022-09-20T01:27:14.371Z,88.95
2022-09-20T01:29:58.353Z,89.48
2022-09-20T01:32:41.947Z,89.47
2022-09-20T01:35:15.912Z,89.00
2022-09-20T01:38:02.810Z,89.57
2022-09-20T01:40:54.208Z,89.64
2022-09-20T01:43:43.620Z,89.54
2022-09-20T01:46:35.021Z,90.01
2022-09-20T01:49:24.704Z,89.85
2022-09-20T01:52:21.391Z,89.92
2022-09-20T01:55:16.880Z,89.79
2022-09-20T01:58:11.428Z,89.97
2022-09-20T02:01:00.976Z,89.87
2022-09-20T02:03:55.593Z,90.21
2022-09-20T02:07:04.787Z,89.81
2022-09-20T02:10:13.629Z,90.26
2022-09-20T02:12:55.994Z,89.98
2022-09-20T02:16:05.415Z,89.89
2022-09-20T02:18:53.327Z,90.30
2022-09-20T02:21:37.687Z,90.30
2022-09-20T02:27:40.779Z,90.38
2022-09-20T02:30:25.295Z,90.55
2022-09-20T02:33:22.300Z,90.60
2022-09-20T02:36:11.373Z,91.15
2022-09-20T02:38:58.977Z,91.60
2022-09-20T02:41:48.781Z,91.28
2022-09-20T02:44:28.828Z,91.86
2022-09-20T02:47:02.862Z,91.52
2022-09-20T02:49:55.952Z,92.13
2022-09-20T02:52:42.308Z,91.74
2022-09-20T02:55:38.331Z,92.03
2022-09-20T02:58:23.793Z,91.97
2022-09-20T03:01:07.599Z,91.77
2022-09-20T03:03:52.963Z,92.10
2022-09-20T03:06:43.613Z,92.18
2022-09-20T03:09:47.309Z,91.29
2022-09-20T03:12:33.367Z,91.80
2022-09-20T03:15:31.479Z,91.67
2022-09-20T03:18:16.667Z,90.99
2022-09-20T03:21:01.592Z,91.45
2022-09-20T03:23:49.892Z,91.38
2022-09-20T03:26:49.012Z,90.91
2022-09-20T03:29:32.945Z,90.86
2022-09-20T03:32:36.896Z,90.89
2022-09-20T03:35:45.725Z,90.63
2022-09-20T03:38:48.725Z,90.81
2022-09-20T03:41:43.239Z,90.56
2022-09-20T03:44:37.653Z,90.93
2022-09-20T03:47:42.751Z,90.65
2022-09-20T03:50:39.125Z,90.68
2022-09-20T03:53:48.236Z,90.87
2022-09-20T03:56:28.445Z,90.36
2022-09-20T03:59:02.876Z,90.14
2022-09-20T04:02:27.038Z,89.69
2022-09-20T04:05:25.701Z,90.05
2022-09-20T04:08:14.456Z,89.73
2022-09-20T04:11:03.272Z,89.68
2022-09-20T04:13:36.351Z,89.16
2022-09-20T04:16:23.192Z,89.06
2022-09-20T04:19:29.676Z,89.20
2022-09-20T04:22:05.529Z,89.09
2022-09-20T04:24:52.949Z,89.12
2022-09-20T04:27:46.729Z,88.98
2022-09-20T04:30:19.545Z,88.84
2022-09-20T04:33:20.627Z,89.08
2022-09-20T04:36:31.114Z,89.59
2022-09-20T04:39:31.737Z,89.10
2022-09-20T04:42:35.668Z,89.51
2022-09-20T04:45:17.883Z,89.62
2022-09-20T04:48:38.138Z,89.53
2022-09-20T04:51:54.312Z,89.36
2022-09-20T04:54:44.601Z,89.32
2022-09-20T04:57:53.927Z,89.53
2022-09-20T05:00:40.204Z,89.31
2022-09-20T05:03:17.438Z,89.14
2022-09-20T05:06:26.466Z,89.31
2022-09-20T05:09:13.987Z,88.83
2022-09-20T05:11:55.100Z,88.86
2022-09-20T05:15:03.273Z,89.03
2022-09-20T05:17:59.712Z,89.00
2022-09-20T05:20:46.615Z,88.91
2022-09-20T05:23:33.273Z,89.21
2022-09-20T05:26:41.980Z,89.37
2022-09-20T05:29:36.384Z,89.41
2022-09-20T05:32:27.674Z,89.46
2022-09-20T05:35:14.325Z,90.05
2022-09-20T05:37:55.042Z,90.90
2022-09-20T05:40:46.269Z,90.86
2022-09-20T05:43:55.971Z,91.62
2022-09-20T05:46:43.447Z,90.86
2022-09-20T05:49:14.872Z,90.85
2022-09-20T05:51:52.246Z,90.95
2022-09-20T05:54:42.008Z,90.62
2022-09-20T05:57:25.461Z,90.84
2022-09-20T06:00:03.322Z,91.24
2022-09-20T06:02:43.997Z,90.88
2022-09-20T06:05:24.405Z,91.13
2022-09-20T06:08:26.416Z,91.18
2022-09-20T06:11:22.285Z,91.01
2022-09-20T06:14:15.127Z,90.99
2022-09-20T06:17:02.510Z,91.37
2022-09-20T06:19:42.310Z,91.58
2022-09-20T06:22:36.566Z,91.71
2022-09-20T06:25:07.789Z,92.14
2022-09-20T06:27:47.238Z,92.41
2022-09-20T06:30:25.056Z,92.46
2022-09-20T06:33:00.467Z,92.51
2022-09-20T06:35:40.055Z,93.20
2022-09-20T06:38:49.126Z,93.37
2022-09-20T06:41:28.201Z,93.61
2022-09-20T06:44:01.315Z,93.08
2022-09-20T06:46:35.648Z,93.21
2022-09-20T06:49:09.528Z,93.48
2022-09-20T06:51:41.357Z,93.47
2022-09-20T06:54:21.124Z,93.41
2022-09-20T06:56:52.560Z,93.40
2022-09-20T06:59:23.939Z,93.94
2022-09-20T07:01:55.312Z,94.01
2022-09-20T07:04:26.740Z,93.36
2022-09-20T07:07:04.150Z,93.87
2022-09-20T07:09:38.708Z,93.97
2022-09-20T07:12:11.597Z,93.88
2022-09-20T07:14:44.205Z,93.76
2022-09-20T07:17:15.549Z,93.32
2022-09-20T07:19:46.931Z,93.60
2022-09-20T07:22:18.452Z,93.27
2022-09-20T07:24:50.016Z,93.27
2022-09-20T07:27:21.436Z,93.09
2022-09-20T07:29:52.816Z,93.13
2022-09-20T07:32:24.201Z,92.69
2022-09-20T07:34:55.538Z,92.65
2022-09-20T07:37:26.816Z,92.53
2022-09-20T07:39:58.193Z,92.66
2022-09-20T07:42:30.155Z,92.52
2022-09-20T07:45:02.724Z,92.34
2022-09-20T07:47:35.422Z,91.81
2022-09-20T07:50:07.296Z,91.32
2022-09-20T07:52:38.733Z,90.84
2022-09-20T07:55:10.118Z,90.60
2022-09-20T07:57:41.779Z,90.94
2022-09-20T08:00:13.307Z,90.83
2022-09-20T08:02:45.400Z,90.76
2022-09-20T08:05:16.830Z,90.64
2022-09-20T08:07:48.151Z,90.63
2022-09-20T08:10:19.498Z,90.03
2022-09-20T08:15:42.788Z,89.99
2022-09-20T08:18:14.807Z,89.77
2022-09-20T08:20:46.172Z,89.86
2022-09-20T08:23:23.887Z,89.42
2022-09-20T08:25:56.894Z,89.24
2022-09-20T08:28:29.632Z,88.94
2022-09-20T08:31:06.765Z,88.75
2022-09-20T08:33:38.117Z,88.53
2022-09-20T08:36:15.345Z,88.03
2022-09-20T08:41:44.159Z,87.31
2022-09-20T08:44:25.067Z,87.24
2022-09-20T08:47:19.142Z,87.10
2022-09-20T08:49:57.007Z,87.02
2022-09-20T08:52:36.801Z,86.92
2022-09-20T08:55:20.688Z,86.85
2022-09-20T08:57:54.932Z,86.16
2022-09-20T09:00:31.153Z,85.12
2022-09-20T09:03:11.648Z,84.78
2022-09-20T09:05:53.378Z,83.76
2022-09-20T09:08:38.081Z,82.94
2022-09-20T09:11:15.129Z,82.60
2022-09-20T09:14:32.370Z,80.31
2022-09-20T09:17:03.751Z,80.85
2022-09-20T09:19:48.878Z,78.80
2022-09-20T09:22:23.645Z,78.17
2022-09-20T09:25:23.020Z,75.17
2022-09-20T09:28:00.344Z,75.94
2022-09-20T09:30:34.925Z,75.47
2022-09-20T09:33:26.534Z,73.60
2022-09-20T09:36:04.163Z,74.46
2022-09-20T09:38:38.379Z,74.83
2022-09-20T09:41:20.291Z,74.43
2022-09-20T09:44:18.853Z,73.42
2022-09-20T09:46:53.374Z,74.18
2022-09-20T09:49:25.840Z,74.53
2022-09-20T09:51:57.115Z,74.29
2022-09-20T09:54:35.557Z,73.19
2022-09-20T09:57:28.763Z,72.48
2022-09-20T10:00:22.287Z,71.22
2022-09-20T10:03:20.892Z,71.88
2022-09-20T10:06:33.878Z,71.18
2022-09-20T10:09:19.417Z,72.72
2022-09-20T10:12:12.144Z,71.96
2022-09-20T10:14:58.529Z,71.28
2022-09-20T10:17:57.444Z,71.05
2022-09-20T10:20:53.216Z,70.43
2022-09-20T10:24:03.133Z,70.36
2022-09-20T10:27:26.009Z,70.27
2022-09-20T10:30:03.454Z,71.20
2022-09-20T10:32:45.879Z,69.45
2022-09-20T10:35:29.164Z,68.48
2022-09-20T10:38:12.112Z,68.58
2022-09-20T10:41:33.405Z,67.12
2022-09-20T10:44:20.024Z,67.29
2022-09-20T10:47:20.300Z,67.48
2022-09-20T10:49:51.781Z,67.45
2022-09-20T10:52:25.915Z,67.68
2022-09-20T10:55:35.176Z,67.02
2022-09-20T10:58:30.956Z,67.15
2022-09-20T11:01:24.310Z,67.83
2022-09-20T11:04:19.785Z,67.32
2022-09-20T11:07:03.253Z,66.82
2022-09-20T11:09:39.744Z,66.50
2022-09-20T11:12:29.667Z,66.17
2022-09-20T11:15:15.389Z,65.73
2022-09-20T11:18:04.581Z,65.99
2022-09-20T11:20:44.071Z,66.55
2022-09-20T11:23:25.181Z,65.64
2022-09-20T11:26:21.128Z,64.55
2022-09-20T11:28:57.490Z,64.89
2022-09-20T11:31:50.523Z,64.54
2022-09-20T11:34:37.381Z,65.61
2022-09-20T11:37:09.187Z,65.47
2022-09-20T11:39:54.138Z,64.44
2022-09-20T11:42:32.987Z,64.64
2022-09-20T11:45:04.717Z,65.01
2022-09-20T11:47:54.479Z,64.95
2022-09-20T11:50:48.917Z,64.51
2022-09-20T11:53:36.969Z,65.62
2022-09-20T11:56:30.207Z,64.42
2022-09-20T11:59:05.777Z,64.98
2022-09-20T12:01:43.355Z,64.32
2022-09-20T12:04:32.248Z,64.91
2022-09-20T12:07:39.598Z,64.87
2022-09-20T12:10:34.026Z,65.34
2022-09-20T12:13:22.708Z,65.98
2022-09-20T12:16:00.853Z,66.29
2022-09-20T12:18:35.695Z,66.61
2022-09-20T12:21:16.319Z,66.56
2022-09-20T12:23:57.072Z,66.68
2022-09-20T12:26:41.493Z,66.91
2022-09-20T12:29:24.948Z,66.79
2022-09-20T12:32:00.449Z,67.00
2022-09-20T12:34:36.787Z,66.75
2022-09-20T12:37:10.213Z,66.73
2022-09-20T12:39:52.273Z,65.59
2022-09-20T12:42:33.023Z,64.85
2022-09-20T12:45:15.471Z,64.95
2022-09-20T12:47:55.746Z,65.01
2022-09-20T12:50:46.821Z,64.77
2022-09-20T12:53:18.370Z,65.03
2022-09-20T12:56:05.007Z,64.36
2022-09-20T12:58:48.304Z,64.31
2022-09-20T13:01:22.591Z,64.51
2022-09-20T13:03:56.939Z,64.31
2022-09-20T13:06:28.352Z,64.31
2022-09-20T13:09:13.051Z,64.20
2022-09-20T13:11:58.854Z,64.29
2022-09-20T13:14:32.477Z,64.21
2022-09-20T13:17:13.663Z,63.93
2022-09-20T13:19:48.823Z,62.88
2022-09-20T13:22:26.597Z,63.15
2022-09-20T13:25:05.016Z,62.10
2022-09-20T13:28:08.749Z,61.36
2022-09-20T13:30:41.814Z,62.55
2022-09-20T13:33:24.277Z,61.76
2022-09-20T13:35:58.581Z,61.93
2022-09-20T13:38:34.520Z,61.76
2022-09-20T13:41:09.053Z,61.44
2022-09-20T13:43:45.396Z,62.96
2022-09-20T13:46:22.609Z,62.04
2022-09-20T13:49:13.685Z,62.03
2022-09-20T13:51:45.074Z,61.16
2022-09-20T13:54:33.310Z,60.08
2022-09-20T13:57:13.423Z,60.55
2022-09-20T13:59:46.540Z,59.26
2022-09-20T14:02:26.290Z,58.40
2022-09-20T14:05:01.700Z,58.41
2022-09-20T14:07:33.853Z,58.20
2022-09-20T14:10:28.014Z,58.14
2022-09-20T14:13:02.306Z,59.11
2022-09-20T14:15:37.554Z,59.57
2022-09-20T14:18:15.105Z,60.05
2022-09-20T14:20:47.604Z,60.33
2022-09-20T14:23:25.537Z,60.93
2022-09-20T14:26:30.185Z,60.90
2022-09-20T14:29:29.562Z,61.81
2022-09-20T14:32:25.057Z,61.71
2022-09-20T14:34:56.320Z,61.83
2022-09-20T14:37:32.723Z,61.35
2022-09-20T14:40:16.799Z,61.20
2022-09-20T14:43:01.073Z,60.41
2022-09-20T14:45:35.724Z,60.46
2022-09-20T14:48:11.310Z,59.88
2022-09-20T14:51:06.345Z,59.27
2022-09-20T14:53:38.215Z,59.57
2022-09-20T14:56:11.826Z,59.46
2022-09-20T14:59:07.520Z,59.03
2022-09-20T15:01:41.898Z,59.74
2022-09-20T15:04:32.942Z,59.08
2022-09-20T15:07:12.943Z,59.41
2022-09-20T15:09:44.202Z,59.52
2022-09-20T15:12:18.390Z,59.54
2022-09-20T15:14:49.858Z,59.71
2022-09-20T15:17:21.653Z,59.87
2022-09-20T15:19:53.709Z,59.33
2022-09-20T15:22:25.575Z,59.38
2022-09-20T15:24:56.897Z,59.14
2022-09-20T15:27:28.574Z,59.41
2022-09-20T15:29:59.876Z,59.40
2022-09-20T15:32:31.442Z,59.43
2022-09-20T15:35:03.258Z,59.50
2022-09-20T15:37:34.838Z,59.60
2022-09-20T15:40:07.967Z,59.89
2022-09-20T15:42:41.582Z,59.94
2022-09-20T15:45:13.314Z,60.00
2022-09-20T15:47:44.583Z,60.25
2022-09-20T15:50:16.106Z,60.43
2022-09-20T15:52:51.228Z,60.36
2022-09-20T15:55:22.560Z,60.76
2022-09-20T15:57:53.834Z,60.71
2022-09-20T16:00:25.085Z,60.80
2022-09-20T16:02:56.372Z,60.87
2022-09-20T16:05:27.641Z,60.88
2022-09-20T16:07:58.942Z,61.01
2022-09-20T16:10:31.324Z,61.09
2022-09-20T16:13:02.676Z,61.10
2022-09-20T16:15:34.077Z,60.94
2022-09-20T16:18:24.068Z,61.19
2022-09-20T16:20:55.322Z,61.18
2022-09-20T16:23:27.303Z,61.33
2022-09-20T16:25:58.562Z,61.42
2022-09-20T16:28:29.953Z,61.62
2022-09-20T16:31:01.469Z,61.91
2022-09-20T16:33:34.133Z,62.04
2022-09-20T16:36:05.957Z,62.18
2022-09-20T16:38:40.309Z,62.75
2022-09-20T16:41:11.836Z,62.97
2022-09-20T16:43:43.527Z,63.63
2022-09-20T16:46:15.212Z,63.89
2022-09-20T16:48:47.745Z,64.56
2022-09-20T16:51:21.030Z,64.75
2022-09-20T16:53:55.952Z,64.86
2022-09-20T16:56:35.560Z,65.22
2022-09-20T16:59:10.652Z,65.47
2022-09-20T17:01:42.936Z,65.89
2022-09-20T17:04:17.511Z,65.90
2022-09-20T17:06:49.914Z,66.49
2022-09-20T17:09:21.270Z,66.55
2022-09-20T17:11:53.627Z,66.11
2022-09-20T17:14:25.644Z,66.85
2022-09-20T17:16:57.569Z,66.97
2022-09-20T17:19:28.855Z,67.21
2022-09-20T17:22:01.417Z,67.40
2022-09-20T17:24:33.578Z,67.94
2022-09-20T17:27:05.113Z,68.16
2022-09-20T17:29:36.378Z,68.56
2022-09-20T17:32:08.820Z,68.85
2022-09-20T17:34:40.557Z,68.93
2022-09-20T17:37:12.180Z,69.31
2022-09-20T17:39:43.452Z,70.02
2022-09-20T17:42:14.696Z,70.04
2022-09-20T17:44:46.131Z,70.08
2022-09-20T17:47:18.077Z,70.48
2022-09-20T17:49:49.337Z,70.79
2022-09-20T17:52:20.675Z,70.89
2022-09-20T17:54:51.992Z,71.15
2022-09-20T17:57:23.259Z,71.45
2022-09-20T17:59:54.545Z,71.89
2022-09-20T18:02:25.872Z,72.08
2022-09-20T18:04:57.131Z,72.28
2022-09-20T18:07:28.404Z,72.78
2022-09-20T18:09:59.736Z,72.98
2022-09-20T18:12:31.078Z,72.84
2022-09-20T18:15:02.495Z,73.20
2022-09-20T18:17:34.871Z,73.37
2022-09-20T18:20:06.717Z,73.57
2022-09-20T18:22:38.582Z,73.80
2022-09-20T18:25:09.964Z,73.96
2022-09-20T18:27:42.044Z,74.01
2022-09-20T18:30:13.391Z,74.30
2022-09-20T18:32:50.094Z,74.50
2022-09-20T18:35:21.368Z,74.79
2022-09-20T18:37:52.827Z,74.88
2022-09-20T18:40:24.219Z,74.94
2022-09-20T18:43:02.369Z,75.24
2022-09-20T18:45:35.658Z,75.26
2022-09-20T18:48:08.748Z,75.47
2022-09-20T18:50:40.074Z,75.93
2022-09-20T18:53:12.558Z,75.99
2022-09-20T18:55:45.031Z,76.11
2022-09-20T18:58:20.782Z,76.44
2022-09-20T19:01:34.458Z,76.08
2022-09-20T19:04:24.500Z,76.45
2022-09-20T19:07:17.543Z,76.90
2022-09-20T19:10:06.520Z,77.06
2022-09-20T19:12:48.393Z,76.75
2022-09-20T19:15:34.854Z,76.83
2022-09-20T19:18:26.967Z,77.34
2022-09-20T19:21:23.147Z,77.66
2022-09-20T19:24:33.035Z,77.73
2022-09-20T19:27:04.612Z,77.42
2022-09-20T19:29:37.671Z,77.70
2022-09-20T19:32:17.178Z,78.25
2022-09-20T19:34:56.026Z,77.88
2022-09-20T19:37:42.368Z,78.19
2022-09-20T19:40:22.195Z,78.22
2022-09-20T19:43:06.452Z,78.10
2022-09-20T19:46:01.477Z,77.92
2022-09-20T19:48:38.766Z,78.10
2022-09-20T19:51:12.317Z,78.69
2022-09-20T19:53:43.886Z,78.54
2022-09-20T19:56:25.044Z,78.88
2022-09-20T19:58:56.594Z,78.92
2022-09-20T20:01:28.296Z,78.83
2022-09-20T20:03:59.974Z,79.49
2022-09-20T20:06:36.682Z,78.84
2022-09-20T20:09:16.972Z,79.45
2022-09-20T20:12:22.601Z,79.19
2022-09-20T20:15:21.216Z,79.26
2022-09-20T20:18:15.843Z,79.33
2022-09-20T20:20:49.986Z,79.18
2022-09-20T20:23:27.957Z,79.96
2022-09-20T20:26:03.043Z,79.74
2022-09-20T20:28:34.698Z,79.97
2022-09-20T20:31:07.083Z,79.54
2022-09-20T20:33:39.307Z,79.86
2022-09-20T20:36:12.003Z,79.80
2022-09-20T20:38:49.401Z,79.74
2022-09-20T20:41:21.673Z,80.17
2022-09-20T20:43:57.041Z,79.87
2022-09-20T20:46:28.344Z,80.11
2022-09-20T20:48:59.642Z,80.40
2022-09-20T20:51:32.849Z,80.24
2022-09-20T20:54:04.651Z,80.41
2022-09-20T20:56:36.056Z,80.03
2022-09-20T20:59:07.459Z,80.25
2022-09-20T21:01:43.742Z,80.68
2022-09-20T21:04:16.777Z,80.48
2022-09-20T21:06:48.082Z,80.26
2022-09-20T21:09:19.360Z,80.58
2022-09-20T21:11:50.617Z,80.53
2022-09-20T21:14:21.881Z,80.45
2022-09-20T21:16:53.638Z,80.55
2022-09-20T21:19:25.085Z,80.93
2022-09-20T21:21:56.346Z,80.92
2022-09-20T21:24:27.589Z,80.66
2022-09-20T21:26:58.869Z,81.34
2022-09-20T21:29:30.133Z,80.92
2022-09-20T21:32:01.602Z,80.39
2022-09-20T21:34:32.989Z,81.35
2022-09-20T21:37:04.301Z,81.53
2022-09-20T21:39:35.556Z,81.21
2022-09-20T21:42:07.144Z,81.02
2022-09-20T21:44:43.523Z,81.20
2022-09-20T21:47:20.024Z,81.26
2022-09-20T21:49:51.307Z,81.34
2022-09-20T21:52:23.588Z,81.50
2022-09-20T21:54:54.902Z,81.47
2022-09-20T21:57:27.250Z,81.09
2022-09-20T21:59:58.484Z,81.52
2022-09-20T22:02:29.776Z,81.60
2022-09-20T22:05:01.308Z,81.51
2022-09-20T22:07:34.336Z,81.85
2022-09-20T22:10:05.950Z,81.56
2022-09-20T22:12:37.210Z,81.71
2022-09-20T22:15:08.911Z,81.68
2022-09-20T22:17:40.176Z,81.85
2022-09-20T22:20:11.482Z,82.01
2022-09-20T22:22:42.846Z,81.54
2022-09-20T22:25:14.176Z,81.87
2022-09-20T22:27:45.445Z,81.72
2022-09-20T22:30:16.832Z,81.54
2022-09-20T22:32:48.083Z,81.85
2022-09-20T22:35:19.420Z,82.01
2022-09-20T22:37:50.683Z,81.74
2022-09-20T22:40:21.967Z,81.92
2022-09-20T22:42:53.556Z,82.24
2022-09-20T22:45:25.143Z,81.88
2022-09-20T22:47:56.406Z,82.13
2022-09-20T22:50:27.671Z,82.34
2022-09-20T22:52:58.969Z,82.20
2022-09-20T22:55:31.370Z,82.42
2022-09-20T22:58:02.894Z,82.12
2022-09-20T23:00:34.153Z,82.16
2022-09-20T23:03:05.421Z,82.58
2022-09-20T23:05:39.842Z,82.69
2022-09-20T23:08:11.439Z,82.50
2022-09-20T23:10:42.691Z,81.99
2022-09-20T23:13:14.465Z,82.82
2022-09-20T23:15:45.700Z,82.35
2022-09-20T23:18:16.962Z,82.35
2022-09-20T23:20:48.278Z,82.74
2022-09-20T23:23:23.470Z,82.78
2022-09-20T23:25:55.123Z,82.31
2022-09-20T23:28:26.629Z,82.74
2022-09-20T23:31:03.467Z,82.31
2022-09-20T23:33:36.282Z,82.93
2022-09-20T23:36:09.580Z,82.45
2022-09-20T23:38:41.032Z,82.70
2022-09-20T23:41:15.879Z,82.45
2022-09-20T23:43:47.710Z,82.54
2022-09-20T23:46:24.214Z,82.64
2022-09-20T23:48:55.648Z,82.95
2022-09-20T23:51:28.496Z,82.47
2022-09-20T23:53:59.776Z,83.12
2022-09-20T23:56:31.938Z,82.63
2022-09-20T23:59:03.205Z,82.44
